createdAt,value
2017-04-21T00:00:29.258Z,25.68
2017-04-21T00:01:28.217Z,23.98
2017-04-21T00:02:27.139Z,25.13
2017-04-21T00:03:26.068Z,26.20
2017-04-21T00:04:25.104Z,24.18
2017-04-21T00:05:24.027Z,25.65
2017-04-21T00:06:22.967Z,25.67
2017-04-21T00:07:21.917Z,25.93
2017-04-21T00:08:20.841Z,25.58
2017-04-21T00:09:19.759Z,25.93
2017-04-21T00:10:18.704Z,26.18
2017-04-21T00:11:17.615Z,24.58
2017-04-21T00:12:16.538Z,24.57
2017-04-21T00:13:15.495Z,25.73
2017-04-21T00:14:14.428Z,26.30
2017-04-21T00:15:13.524Z,25.47
2017-04-21T00:16:12.516Z,25.57
2017-04-21T00:17:11.412Z,25.62
2017-04-21T00:18:10.333Z,25.27
2017-04-21T00:19:09.269Z,25.78
2017-04-21T00:20:08.964Z,24.98
2017-04-21T00:21:07.913Z,27.08
2017-04-21T00:22:06.891Z,26.17
2017-04-21T00:23:05.808Z,26.60
2017-04-21T00:24:04.740Z,25.58
2017-04-21T00:25:03.658Z,25.80
2017-04-21T00:26:02.588Z,25.68
2017-04-21T00:27:01.516Z,25.45
2017-04-21T00:28:00.458Z,27.07
2017-04-21T00:28:59.401Z,26.68
2017-04-21T00:29:58.337Z,27.13
2017-04-21T00:30:57.284Z,25.87
2017-04-21T00:31:56.209Z,25.98
2017-04-21T00:32:55.170Z,26.72
2017-04-21T00:33:54.128Z,26.53
2017-04-21T00:34:53.040Z,26.72
2017-04-21T00:35:51.980Z,26.48
2017-04-21T00:36:51.012Z,26.20
2017-04-21T00:37:50.715Z,26.53
2017-04-21T00:38:49.641Z,24.90
2017-04-21T00:39:48.579Z,27.07
2017-04-21T00:40:47.504Z,28.35
2017-04-21T00:41:46.420Z,24.98
2017-04-21T00:42:45.373Z,27.87
2017-04-21T00:43:44.270Z,27.30
2017-04-21T00:44:43.195Z,26.42
2017-04-21T00:45:42.193Z,25.48
2017-04-21T00:46:41.128Z,26.63
2017-04-21T00:47:40.064Z,25.10
2017-04-21T00:48:38.994Z,27.67
2017-04-21T00:49:37.924Z,27.47
2017-04-21T00:50:36.836Z,26.92
2017-04-21T00:51:35.869Z,26.28
2017-04-21T00:52:34.831Z,26.75
2017-04-21T00:53:33.773Z,28.18
2017-04-21T00:54:32.740Z,29.50
2017-04-21T00:55:31.695Z,27.95
2017-04-21T00:56:31.469Z,27.52
2017-04-21T00:57:30.587Z,27.88
2017-04-21T00:58:29.529Z,27.92
2017-04-21T00:59:28.459Z,32.02
2017-04-21T01:00:27.376Z,27.70
2017-04-21T01:01:26.290Z,30.82
2017-04-21T01:02:25.203Z,29.08
2017-04-21T01:03:24.154Z,30.67
2017-04-21T01:04:23.056Z,32.07
2017-04-21T01:05:21.980Z,29.60
2017-04-21T01:06:20.908Z,28.77
2017-04-21T01:07:20.560Z,31.82
2017-04-21T01:08:19.642Z,28.62
2017-04-21T01:09:18.569Z,29.72
2017-04-21T01:10:17.515Z,29.37
2017-04-21T01:11:16.446Z,29.68
2017-04-21T01:12:15.357Z,30.93
2017-04-21T01:13:14.305Z,30.37
2017-04-21T01:14:13.992Z,29.52
2017-04-21T01:15:13.668Z,30.35
2017-04-21T01:16:12.555Z,30.45
2017-04-21T01:17:11.452Z,32.48
2017-04-21T01:18:10.408Z,30.08
2017-04-21T01:19:09.362Z,30.67
2017-04-21T01:20:08.342Z,29.53
2017-04-21T01:21:07.334Z,29.80
2017-04-21T01:22:06.388Z,29.42
2017-04-21T01:23:05.413Z,29.95
2017-04-21T01:24:04.440Z,29.82
2017-04-21T01:25:03.362Z,30.85
2017-04-21T01:26:02.342Z,32.55
2017-04-21T01:27:01.284Z,29.40
2017-04-21T01:28:00.200Z,30.47
2017-04-21T01:28:59.308Z,31.48
2017-04-21T01:29:58.292Z,32.42
2017-04-21T01:30:57.229Z,30.87
2017-04-21T01:31:56.876Z,30.80
2017-04-21T01:32:55.800Z,30.35
2017-04-21T01:33:55.452Z,30.10
2017-04-21T01:34:54.380Z,33.66
2017-04-21T01:35:54.044Z,31.40
2017-04-21T01:36:53.065Z,35.02
2017-04-21T01:37:52.776Z,32.33
2017-04-21T01:38:51.800Z,28.68
2017-04-21T01:39:50.711Z,31.20
2017-04-21T01:40:49.614Z,31.37
2017-04-21T01:41:48.583Z,30.43
2017-04-21T01:42:47.501Z,31.87
2017-04-21T01:43:46.535Z,31.88
2017-04-21T01:44:45.494Z,31.97
2017-04-21T01:45:44.395Z,35.13
2017-04-21T01:46:43.317Z,34.02
2017-04-21T01:47:42.212Z,30.88
2017-04-21T01:48:41.153Z,35.57
2017-04-21T01:49:40.087Z,34.33
2017-04-21T01:50:39.031Z,33.15
2017-04-21T01:51:37.948Z,31.46
2017-04-21T01:52:36.884Z,32.67
2017-04-21T01:53:36.576Z,32.75
2017-04-21T01:54:35.525Z,30.32
2017-04-21T01:55:34.432Z,32.68
2017-04-21T01:56:33.592Z,33.53
2017-04-21T01:57:32.515Z,35.05
2017-04-21T01:58:31.436Z,32.58
2017-04-21T01:59:30.348Z,33.13
2017-04-21T02:00:29.336Z,34.07
2017-04-21T02:01:28.229Z,34.65
2017-04-21T02:02:27.158Z,34.10
2017-04-21T02:03:26.156Z,33.95
2017-04-21T02:04:25.084Z,34.83
2017-04-21T02:05:24.084Z,34.87
2017-04-21T02:06:22.987Z,35.87
2017-04-21T02:07:21.954Z,34.50
2017-04-21T02:08:20.896Z,34.80
2017-04-21T02:09:19.859Z,33.60
2017-04-21T02:10:18.828Z,33.67
2017-04-21T02:11:17.759Z,37.63
2017-04-21T02:12:16.682Z,37.10
2017-04-21T02:13:15.571Z,34.57
2017-04-21T02:14:14.519Z,35.63
2017-04-21T02:15:13.448Z,37.30
2017-04-21T02:16:12.348Z,33.23
2017-04-21T02:17:11.241Z,37.65
2017-04-21T02:18:10.906Z,35.42
2017-04-21T02:19:09.984Z,36.87
2017-04-21T02:20:09.000Z,34.65
2017-04-21T02:21:07.938Z,33.57
2017-04-21T02:22:06.842Z,37.97
2017-04-21T02:23:05.822Z,36.15
2017-04-21T02:24:04.746Z,38.28
2017-04-21T02:25:03.656Z,35.90
2017-04-21T02:26:02.756Z,38.80
2017-04-21T02:27:01.745Z,36.72
2017-04-21T02:28:00.677Z,36.68
2017-04-21T02:28:59.596Z,37.70
2017-04-21T02:29:58.519Z,35.25
2017-04-21T02:30:58.209Z,37.03
2017-04-21T02:31:57.149Z,39.23
2017-04-21T02:32:56.088Z,39.42
2017-04-21T02:33:54.993Z,38.15
2017-04-21T02:34:53.940Z,37.97
2017-04-21T02:35:52.864Z,39.07
2017-04-21T02:36:51.759Z,38.58
2017-04-21T02:37:50.696Z,36.43
2017-04-21T02:38:49.608Z,41.02
2017-04-21T02:39:48.515Z,39.33
2017-04-21T02:40:47.455Z,41.82
2017-04-21T02:41:46.389Z,39.18
2017-04-21T02:42:45.323Z,40.65
2017-04-21T02:43:44.276Z,41.45
2017-04-21T02:44:43.208Z,41.96
2017-04-21T02:45:42.133Z,39.87
2017-04-21T02:46:41.052Z,40.18
2017-04-21T02:47:39.979Z,42.45
2017-04-21T02:48:38.883Z,41.93
2017-04-21T02:49:38.570Z,42.78
2017-04-21T02:50:38.264Z,45.13
2017-04-21T02:51:37.189Z,44.70
2017-04-21T02:52:36.163Z,44.15
2017-04-21T02:53:35.117Z,41.92
2017-04-21T02:54:34.934Z,42.55
2017-04-21T02:55:33.928Z,42.17
2017-04-21T02:56:33.638Z,42.87
2017-04-21T02:57:32.732Z,42.10
2017-04-21T02:58:31.692Z,41.97
2017-04-21T02:59:30.610Z,44.63
2017-04-21T03:00:29.531Z,41.95
2017-04-21T03:01:28.519Z,45.00
2017-04-21T03:02:28.179Z,45.18
2017-04-21T03:03:27.107Z,46.20
2017-04-21T03:04:26.039Z,47.52
2017-04-21T03:05:24.967Z,47.72
2017-04-21T03:06:23.889Z,47.63
2017-04-21T03:07:22.827Z,50.07
2017-04-21T03:08:21.735Z,48.43
2017-04-21T03:09:20.736Z,50.37
2017-04-21T03:10:19.760Z,53.88
2017-04-21T03:11:18.752Z,54.28
2017-04-21T03:12:17.675Z,55.62
2017-04-21T03:13:16.615Z,56.03
2017-04-21T03:14:15.524Z,55.60
2017-04-21T03:15:14.453Z,55.03
2017-04-21T03:16:13.364Z,57.02
2017-04-21T03:17:12.288Z,60.77
2017-04-21T03:18:11.200Z,55.58
2017-04-21T03:19:10.587Z,57.15
2017-04-21T03:20:09.522Z,57.37
2017-04-21T03:21:08.460Z,57.17
2017-04-21T03:22:07.412Z,59.48
2017-04-21T03:23:06.324Z,59.44
2017-04-21T03:24:05.248Z,61.32
2017-04-21T03:25:04.241Z,55.48
2017-04-21T03:26:03.164Z,53.42
2017-04-21T03:27:02.085Z,59.15
2017-04-21T03:28:01.020Z,58.08
2017-04-21T03:28:59.985Z,57.97
2017-04-21T03:29:58.892Z,58.85
2017-04-21T03:30:57.819Z,63.15
2017-04-21T03:31:56.768Z,65.80
2017-04-21T03:32:56.545Z,58.05
2017-04-21T03:33:55.525Z,55.47
2017-04-21T03:34:54.435Z,58.18
2017-04-21T03:35:53.360Z,56.88
2017-04-21T03:36:52.325Z,58.93
2017-04-21T03:37:51.264Z,60.67
2017-04-21T03:38:50.202Z,59.75
2017-04-21T03:39:49.133Z,60.32
2017-04-21T03:40:48.086Z,63.58
2017-04-21T03:41:47.000Z,59.75
2017-04-21T03:42:45.951Z,56.73
2017-04-21T03:43:44.894Z,61.23
2017-04-21T03:44:43.843Z,64.13
2017-04-21T03:45:43.123Z,64.72
2017-04-21T03:46:42.023Z,62.18
2017-04-21T03:47:41.708Z,61.00
2017-04-21T03:48:40.641Z,62.47
2017-04-21T03:49:39.650Z,62.12
2017-04-21T03:50:38.604Z,61.60
2017-04-21T03:51:37.614Z,64.16
2017-04-21T03:52:36.595Z,64.40
2017-04-21T03:53:35.516Z,60.67
2017-04-21T03:54:34.476Z,63.07
2017-04-21T03:55:33.850Z,61.28
2017-04-21T03:56:33.043Z,64.95
2017-04-21T03:57:32.000Z,61.77
2017-04-21T03:58:30.921Z,63.20
2017-04-21T03:59:29.815Z,62.73
2017-04-21T04:00:29.511Z,59.32
2017-04-21T04:01:29.243Z,62.15
2017-04-21T04:02:28.152Z,63.73
2017-04-21T04:03:27.063Z,63.60
2017-04-21T04:04:25.976Z,61.52
2017-04-21T04:05:24.967Z,60.00
2017-04-21T04:06:23.907Z,59.25
2017-04-21T04:07:23.568Z,62.95
2017-04-21T04:08:22.492Z,63.95
2017-04-21T04:09:21.448Z,63.52
2017-04-21T04:10:20.420Z,63.78
2017-04-21T04:11:19.344Z,62.38
2017-04-21T04:12:18.296Z,61.72
2017-04-21T04:13:17.237Z,64.58
2017-04-21T04:14:16.163Z,63.52
2017-04-21T04:15:15.126Z,67.35
2017-04-21T04:16:14.059Z,63.33
2017-04-21T04:17:13.026Z,65.33
2017-04-21T04:18:11.991Z,65.10
2017-04-21T04:19:10.962Z,62.42
2017-04-21T04:20:09.911Z,61.80
2017-04-21T04:21:08.889Z,67.10
2017-04-21T04:22:07.808Z,66.98
2017-04-21T04:23:06.773Z,63.22
2017-04-21T04:24:05.736Z,65.90
2017-04-21T04:25:04.660Z,61.03
2017-04-21T04:26:03.592Z,66.67
2017-04-21T04:27:02.624Z,66.65
2017-04-21T04:28:01.529Z,63.40
2017-04-21T04:29:00.457Z,70.10
2017-04-21T04:29:59.391Z,69.37
2017-04-21T04:30:58.351Z,64.67
2017-04-21T04:31:57.300Z,64.97
2017-04-21T04:32:56.276Z,62.48
2017-04-21T04:33:55.231Z,69.85
2017-04-21T04:34:54.123Z,64.27
2017-04-21T04:35:53.326Z,64.25
2017-04-21T04:36:52.264Z,69.43
2017-04-21T04:37:51.184Z,65.13
2017-04-21T04:38:50.202Z,62.43
2017-04-21T04:39:49.127Z,64.73
2017-04-21T04:40:48.877Z,64.73
2017-04-21T04:41:47.798Z,64.43
2017-04-21T04:42:46.752Z,61.68
2017-04-21T04:43:45.659Z,62.45
2017-04-21T04:44:44.632Z,63.03
2017-04-21T04:45:43.547Z,65.35
2017-04-21T04:46:42.468Z,62.58
2017-04-21T04:47:41.417Z,64.32
2017-04-21T04:48:40.341Z,64.73
2017-04-21T04:49:39.263Z,65.15
2017-04-21T04:50:38.172Z,67.07
2017-04-21T04:51:37.276Z,64.42
2017-04-21T04:52:36.188Z,61.82
2017-04-21T04:53:35.231Z,60.20
2017-04-21T04:54:34.171Z,61.37
2017-04-21T04:55:33.095Z,61.43
2017-04-21T04:56:32.091Z,62.68
2017-04-21T04:57:31.132Z,63.55
2017-04-21T04:58:30.167Z,61.93
2017-04-21T04:59:29.109Z,64.05
2017-04-21T05:00:28.025Z,62.98
2017-04-21T05:01:26.948Z,61.60
2017-04-21T05:02:26.813Z,63.23
2017-04-21T05:03:25.735Z,59.95
2017-04-21T05:04:25.383Z,65.82
2017-04-21T05:05:24.335Z,64.57
2017-04-21T05:06:23.284Z,61.78
2017-04-21T05:07:23.000Z,63.77
2017-04-21T05:08:21.957Z,59.87
2017-04-21T05:09:20.877Z,65.93
2017-04-21T05:10:19.888Z,62.66
2017-04-21T05:11:18.904Z,64.50
2017-04-21T05:12:17.861Z,64.03
2017-04-21T05:13:16.936Z,66.88
2017-04-21T05:14:15.928Z,62.18
2017-04-21T05:15:14.904Z,61.90
2017-04-21T05:16:13.811Z,62.58
2017-04-21T05:17:12.760Z,63.75
2017-04-21T05:18:11.684Z,60.30
2017-04-21T05:19:10.616Z,61.70
2017-04-21T05:20:09.608Z,63.03
2017-04-21T05:21:08.617Z,66.18
2017-04-21T05:22:07.560Z,66.47
2017-04-21T05:23:06.525Z,65.55
2017-04-21T05:24:05.465Z,67.70
2017-04-21T05:25:04.404Z,67.42
2017-04-21T05:26:03.392Z,66.47
2017-04-21T05:27:02.324Z,65.37
2017-04-21T05:28:01.412Z,68.17
2017-04-21T05:29:00.456Z,67.43
2017-04-21T05:29:59.387Z,64.57
2017-04-21T05:30:58.355Z,67.87
2017-04-21T05:31:57.310Z,65.95
2017-04-21T05:32:56.250Z,64.47
2017-04-21T05:33:55.196Z,68.68
2017-04-21T05:34:54.978Z,64.48
2017-04-21T05:35:53.970Z,62.95
2017-04-21T05:36:52.906Z,66.85
2017-04-21T05:37:51.848Z,64.12
2017-04-21T05:38:51.551Z,67.40
2017-04-21T05:39:50.595Z,60.38
2017-04-21T05:40:49.682Z,63.88
2017-04-21T05:41:48.688Z,65.86
2017-04-21T05:42:48.366Z,65.77
2017-04-21T05:43:47.599Z,65.48
2017-04-21T05:44:46.551Z,69.17
2017-04-21T05:45:45.926Z,69.05
2017-04-21T05:46:44.932Z,70.08
2017-04-21T05:47:43.889Z,68.72
2017-04-21T05:48:42.906Z,63.05
2017-04-21T05:49:42.267Z,67.73
2017-04-21T05:50:41.179Z,68.67
2017-04-21T05:51:40.138Z,65.90
2017-04-21T05:52:39.153Z,63.83
2017-04-21T05:53:38.140Z,69.42
2017-04-21T05:54:37.088Z,69.50
2017-04-21T05:55:36.043Z,68.10
2017-04-21T05:56:34.980Z,73.23
2017-04-21T05:57:33.949Z,68.75
2017-04-21T05:58:33.780Z,70.12
2017-04-21T05:59:33.939Z,69.75
2017-04-21T06:00:32.953Z,70.28
2017-04-21T06:01:32.108Z,68.48
2017-04-21T06:02:31.064Z,65.82
2017-04-21T06:03:30.037Z,68.22
2017-04-21T06:04:28.997Z,71.37
2017-04-21T06:05:27.956Z,71.72
2017-04-21T06:06:26.946Z,70.55
2017-04-21T06:07:25.899Z,69.00
2017-04-21T06:08:24.813Z,69.18
2017-04-21T06:09:24.501Z,69.85
2017-04-21T06:10:24.227Z,67.80
2017-04-21T06:11:23.184Z,71.03
2017-04-21T06:12:22.480Z,70.07
2017-04-21T06:13:21.404Z,69.82
2017-04-21T06:14:20.366Z,71.37
2017-04-21T06:15:19.330Z,66.30
2017-04-21T06:16:19.030Z,65.88
2017-04-21T06:17:17.949Z,69.42
2017-04-21T06:18:16.883Z,70.67
2017-04-21T06:19:15.844Z,70.97
2017-04-21T06:20:14.855Z,72.88
2017-04-21T06:21:14.555Z,69.35
2017-04-21T06:22:14.332Z,69.73
2017-04-21T06:23:13.327Z,68.92
2017-04-21T06:24:12.317Z,67.18
2017-04-21T06:25:12.044Z,70.28
2017-04-21T06:26:10.981Z,68.48
2017-04-21T06:27:09.991Z,72.35
2017-04-21T06:28:09.007Z,66.77
2017-04-21T06:29:07.937Z,67.75
2017-04-21T06:30:06.870Z,66.03
2017-04-21T06:31:05.836Z,66.62
2017-04-21T06:32:04.784Z,69.23
2017-04-21T06:33:03.739Z,67.27
2017-04-21T06:34:02.684Z,72.60
2017-04-21T06:35:01.621Z,71.08
2017-04-21T06:36:00.525Z,67.20
2017-04-21T06:37:00.200Z,66.55
2017-04-21T06:37:59.128Z,69.70
2017-04-21T06:38:58.085Z,67.35
2017-04-21T06:39:56.410Z,67.75
2017-04-21T06:40:55.396Z,66.78
2017-04-21T06:41:54.391Z,74.82
2017-04-21T06:42:53.374Z,72.98
2017-04-21T06:44:59.971Z,62.37
2017-04-21T06:45:58.906Z,71.25
2017-04-21T06:46:57.912Z,72.68
2017-04-21T06:47:56.907Z,66.03
2017-04-21T06:48:56.591Z,71.52
2017-04-21T06:49:55.556Z,70.65
2017-04-21T06:50:54.496Z,68.08
2017-04-21T06:51:53.428Z,67.72
2017-04-21T06:52:52.378Z,66.35
2017-04-21T06:53:51.523Z,69.92
2017-04-21T06:54:51.239Z,65.37
2017-04-21T06:55:50.196Z,68.07
2017-04-21T06:56:49.935Z,66.73
2017-04-21T06:57:48.892Z,64.57
2017-04-21T06:58:48.617Z,71.00
2017-04-21T06:59:47.769Z,65.95
2017-04-21T07:00:47.452Z,71.92
2017-04-21T07:01:47.166Z,69.37
2017-04-21T07:02:56.777Z,69.77
2017-04-21T07:03:55.794Z,68.98
2017-04-21T07:04:54.729Z,64.55
2017-04-21T07:05:53.692Z,64.80
2017-04-21T07:06:52.624Z,64.24
2017-04-21T07:07:52.475Z,72.90
2017-04-21T07:08:51.468Z,69.10
2017-04-21T07:09:50.392Z,64.67
2017-04-21T07:10:50.069Z,66.57
2017-04-21T07:11:49.023Z,65.67
2017-04-21T07:12:47.961Z,64.00
2017-04-21T07:13:47.697Z,62.90
2017-04-21T07:14:46.627Z,65.08
2017-04-21T07:15:45.577Z,65.52
2017-04-21T07:16:44.541Z,62.00
2017-04-21T07:17:43.497Z,67.08
2017-04-21T07:18:42.424Z,67.27
2017-04-21T07:19:41.490Z,62.62
2017-04-21T07:20:40.535Z,68.55
2017-04-21T07:21:40.424Z,67.27
2017-04-21T07:22:39.469Z,69.55
2017-04-21T07:23:38.495Z,66.90
2017-04-21T07:24:38.292Z,65.60
2017-04-21T07:25:38.020Z,65.50
2017-04-21T07:26:37.036Z,64.88
2017-04-21T07:27:36.065Z,65.85
2017-04-21T07:28:35.136Z,66.98
2017-04-21T07:29:34.085Z,67.82
2017-04-21T07:30:33.151Z,66.05
2017-04-21T07:31:32.089Z,68.92
2017-04-21T07:32:31.807Z,70.86
2017-04-21T07:33:31.537Z,65.37
2017-04-21T07:34:30.500Z,66.00
2017-04-21T07:35:29.520Z,70.62
2017-04-21T07:36:28.462Z,68.03
2017-04-21T07:37:28.134Z,67.93
2017-04-21T07:38:27.200Z,66.13
2017-04-21T07:39:26.911Z,70.23
2017-04-21T07:40:25.881Z,76.28
2017-04-21T07:41:24.839Z,69.93
2017-04-21T07:42:23.784Z,72.72
2017-04-21T07:43:23.467Z,66.22
2017-04-21T07:44:22.418Z,72.50
2017-04-21T07:45:21.500Z,68.75
2017-04-21T07:46:20.483Z,65.97
2017-04-21T07:47:19.462Z,64.96
2017-04-21T07:48:18.443Z,70.07
2017-04-21T07:49:17.371Z,70.53
2017-04-21T07:50:16.442Z,65.97
2017-04-21T07:51:15.390Z,69.40
2017-04-21T07:52:14.319Z,63.83
2017-04-21T07:53:14.016Z,64.85
2017-04-21T07:54:13.920Z,62.32
2017-04-21T07:55:13.595Z,59.82
2017-04-21T07:56:12.583Z,61.28
2017-04-21T07:57:11.575Z,59.45
2017-04-21T07:58:11.309Z,67.22
2017-04-21T07:59:10.291Z,57.97
2017-04-21T08:00:09.335Z,60.20
2017-04-21T08:01:08.283Z,55.20
2017-04-21T08:02:07.304Z,57.52
2017-04-21T08:03:06.259Z,61.98
2017-04-21T08:04:05.269Z,58.25
2017-04-21T08:05:04.948Z,59.62
2017-04-21T08:06:03.904Z,58.15
2017-04-21T08:07:02.884Z,55.95
2017-04-21T08:08:01.892Z,53.43
2017-04-21T08:09:59.869Z,54.60
2017-04-21T08:10:58.803Z,52.57
2017-04-21T08:11:57.824Z,58.75
2017-04-21T08:12:56.763Z,57.33
2017-04-21T08:13:55.766Z,51.95
2017-04-21T08:14:54.733Z,51.72
2017-04-21T08:15:53.692Z,53.02
2017-04-21T08:16:53.390Z,52.67
2017-04-21T08:17:53.122Z,50.25
2017-04-21T08:18:52.174Z,53.76
2017-04-21T08:19:51.905Z,52.65
2017-04-21T08:20:51.060Z,49.52
2017-04-21T08:21:50.793Z,48.97
2017-04-21T08:22:49.792Z,51.40
2017-04-21T08:23:48.753Z,48.75
2017-04-21T08:24:47.816Z,47.62
2017-04-21T08:25:47.587Z,47.87
2017-04-21T08:26:46.519Z,50.92
2017-04-21T08:27:45.476Z,54.35
2017-04-21T08:28:44.453Z,50.24
2017-04-21T08:29:44.124Z,50.15
2017-04-21T08:30:43.421Z,49.42
2017-04-21T08:31:42.411Z,50.42
2017-04-21T08:32:41.393Z,49.00
2017-04-21T08:33:40.392Z,52.42
2017-04-21T08:34:40.092Z,51.05
2017-04-21T08:35:39.800Z,51.15
2017-04-21T08:36:38.759Z,49.43
2017-04-21T08:37:37.748Z,47.83
2017-04-21T08:38:37.458Z,46.12
2017-04-21T08:39:37.137Z,51.60
2017-04-21T08:40:36.128Z,51.02
2017-04-21T08:41:35.897Z,46.92
2017-04-21T08:42:34.925Z,47.62
2017-04-21T08:43:34.795Z,51.18
2017-04-21T08:44:33.732Z,47.88
2017-04-21T08:45:32.663Z,46.68
2017-04-21T08:46:31.664Z,47.92
2017-04-21T08:47:30.623Z,47.10
2017-04-21T08:48:29.607Z,51.95
2017-04-21T08:49:28.551Z,47.13
2017-04-21T08:50:27.611Z,45.95
2017-04-21T08:51:26.545Z,46.93
2017-04-21T08:52:25.514Z,46.18
2017-04-21T08:53:24.493Z,50.30
2017-04-21T08:54:23.448Z,46.83
2017-04-21T08:55:22.403Z,45.82
2017-04-21T08:56:22.117Z,46.15
2017-04-21T08:57:21.055Z,45.05
2017-04-21T08:58:20.107Z,46.18
2017-04-21T08:59:19.073Z,47.15
2017-04-21T09:00:17.228Z,44.43
2017-04-21T09:01:16.225Z,47.73
2017-04-21T09:02:15.241Z,43.87
2017-04-21T09:03:14.205Z,43.28
2017-04-21T09:04:13.124Z,46.77
2017-04-21T09:05:12.047Z,47.30
2017-04-21T09:06:11.002Z,43.83
2017-04-21T09:07:10.708Z,44.82
2017-04-21T09:08:09.756Z,46.43
2017-04-21T09:09:08.695Z,44.97
2017-04-21T09:10:07.822Z,42.68
2017-04-21T09:11:06.940Z,41.85
2017-04-21T09:12:06.813Z,40.08
2017-04-21T09:13:05.759Z,41.45
2017-04-21T09:14:04.766Z,41.37
2017-04-21T09:15:03.710Z,40.85
2017-04-21T09:16:03.673Z,37.30
2017-04-21T09:18:01.571Z,38.36
2017-04-21T09:19:00.535Z,40.32
2017-04-21T09:19:59.664Z,38.40
2017-04-21T09:20:58.591Z,38.57
2017-04-21T09:21:57.532Z,34.82
2017-04-21T09:22:56.544Z,34.18
2017-04-21T09:23:55.486Z,38.42
2017-04-21T09:24:54.468Z,39.92
2017-04-21T09:25:53.397Z,38.45
2017-04-21T09:26:52.377Z,34.37
2017-04-21T09:27:51.452Z,38.65
2017-04-21T09:28:50.422Z,37.30
2017-04-21T09:29:49.364Z,37.53
2017-04-21T09:30:48.346Z,35.08
2017-04-21T09:31:47.319Z,38.25
2017-04-21T09:32:46.313Z,37.67
2017-04-21T09:33:45.348Z,34.02
2017-04-21T09:35:36.084Z,34.22
2017-04-21T09:35:43.336Z,33.97
2017-04-21T09:36:42.402Z,39.37
2017-04-21T09:37:41.359Z,38.20
2017-04-21T09:38:40.472Z,36.52
2017-04-21T09:39:39.440Z,37.87
2017-04-21T09:40:38.427Z,33.27
2017-04-21T09:41:37.337Z,36.43
2017-04-21T09:42:36.336Z,36.63
2017-04-21T09:43:35.341Z,36.50
2017-04-21T09:44:34.452Z,32.75
2017-04-21T09:45:33.448Z,33.07
2017-04-21T09:46:32.460Z,32.47
2017-04-21T09:47:32.193Z,30.25
2017-04-21T09:48:31.668Z,33.00
2017-04-21T09:49:30.606Z,31.83
2017-04-21T09:50:29.693Z,32.03
2017-04-21T09:51:28.683Z,30.07
2017-04-21T09:53:26.625Z,30.42
2017-04-21T09:54:04.146Z,28.58
2017-04-21T09:57:02.327Z,30.30
2017-04-21T09:59:11.951Z,30.67
2017-04-21T09:59:18.408Z,30.63
2017-04-21T10:00:19.653Z,28.63
2017-04-21T10:01:21.893Z,29.75
2017-04-21T10:02:01.043Z,26.22
2017-04-21T10:02:28.138Z,32.60
2017-04-21T10:06:12.333Z,28.85
2017-04-21T10:06:33.789Z,28.37
2017-04-21T10:07:24.260Z,26.78
2017-04-21T10:07:56.538Z,28.57
2017-04-21T10:08:09.167Z,29.15
2017-04-21T10:08:11.830Z,28.55
2017-04-21T10:08:20.828Z,29.02
2017-04-21T10:08:21.616Z,32.37
2017-04-21T10:09:11.678Z,29.33
2017-04-21T10:10:10.621Z,29.85
2017-04-21T10:11:09.656Z,33.85
2017-04-21T10:12:08.660Z,32.63
2017-04-21T10:13:08.411Z,29.27
2017-04-21T10:14:07.374Z,30.55
2017-04-21T10:15:06.322Z,29.97
2017-04-21T10:16:05.356Z,29.10
2017-04-21T10:17:04.365Z,28.60
2017-04-21T10:18:03.387Z,29.90
2017-04-21T10:19:03.098Z,30.93
2017-04-21T10:20:02.025Z,30.68
2017-04-21T10:21:01.068Z,26.70
2017-04-21T10:22:00.060Z,25.90
2017-04-21T10:22:59.176Z,30.17
2017-04-21T10:23:58.163Z,27.75
2017-04-21T10:24:57.248Z,25.23
2017-04-21T10:25:56.230Z,30.58
2017-04-21T10:26:55.185Z,29.02
2017-04-21T10:27:54.188Z,26.17
2017-04-21T10:28:53.152Z,26.75
2017-04-21T10:29:52.348Z,27.38
2017-04-21T10:30:51.283Z,28.90
2017-04-21T10:31:51.055Z,27.47
2017-04-21T10:32:50.144Z,27.90
2017-04-21T10:33:49.101Z,25.48
2017-04-21T10:34:48.207Z,31.80
2017-04-21T10:35:47.210Z,35.38
2017-04-21T10:36:46.872Z,34.17
2017-04-21T10:37:45.863Z,36.28
2017-04-21T10:38:44.800Z,29.12
2017-04-21T10:39:43.777Z,25.25
2017-04-21T10:40:42.761Z,23.23
2017-04-21T10:41:41.789Z,23.33
2017-04-21T10:42:40.698Z,22.75
2017-04-21T10:43:39.675Z,24.12
2017-04-21T10:44:38.669Z,19.35
2017-04-21T10:45:38.352Z,24.17
2017-04-21T10:46:37.278Z,19.93
2017-04-21T10:47:36.282Z,20.18
2017-04-21T10:48:35.316Z,23.18
2017-04-21T10:49:34.308Z,20.58
2017-04-21T10:50:33.335Z,20.43
2017-04-21T10:51:32.434Z,24.38
2017-04-21T10:52:31.462Z,21.18
2017-04-21T10:53:31.258Z,22.25
2017-04-21T10:54:30.924Z,23.28
2017-04-21T10:55:29.901Z,22.92
2017-04-21T10:56:28.907Z,21.35
2017-04-21T10:57:27.829Z,19.50
2017-04-21T10:58:26.744Z,19.12
2017-04-21T10:59:25.708Z,19.15
2017-04-21T11:00:24.678Z,21.40
2017-04-21T11:01:23.674Z,19.18
2017-04-21T11:02:22.907Z,18.02
2017-04-21T11:03:21.888Z,18.60
2017-04-21T11:04:20.905Z,17.43
2017-04-21T11:05:19.915Z,16.30
2017-04-21T11:06:18.848Z,16.85
2017-04-21T11:07:18.556Z,16.30
2017-04-21T11:08:17.567Z,17.25
2017-04-21T11:09:16.845Z,17.08
2017-04-21T11:10:15.812Z,17.02
2017-04-21T11:11:14.837Z,16.08
2017-04-21T11:12:13.940Z,15.08
2017-04-21T11:13:12.883Z,15.60
2017-04-21T11:14:11.856Z,15.33
2017-04-21T11:15:10.807Z,15.38
2017-04-21T11:16:10.157Z,16.27
2017-04-21T11:17:09.296Z,15.55
2017-04-21T11:18:08.350Z,14.27
2017-04-21T11:19:07.713Z,15.72
2017-04-21T11:20:06.735Z,16.02
2017-04-21T11:21:05.680Z,15.60
2017-04-21T11:22:04.640Z,15.02
2017-04-21T11:23:03.611Z,15.65
2017-04-21T11:24:02.587Z,18.70
2017-04-21T11:25:01.593Z,14.42
2017-04-21T11:26:00.605Z,16.43
2017-04-21T11:26:59.543Z,14.78
2017-04-21T11:27:58.659Z,15.35
2017-04-21T11:28:57.655Z,16.10
2017-04-21T11:29:56.594Z,15.23
2017-04-21T11:30:55.623Z,15.28
2017-04-21T11:31:54.645Z,14.85
2017-04-21T11:32:53.611Z,14.57
2017-04-21T11:33:52.601Z,14.75
2017-04-21T11:34:51.678Z,17.52
2017-04-21T11:35:50.622Z,16.07
2017-04-21T11:36:49.724Z,15.20
2017-04-21T11:37:48.747Z,15.13
2017-04-21T11:38:48.444Z,16.12
2017-04-21T11:39:48.131Z,15.48
2017-04-21T11:40:47.086Z,18.82
2017-04-21T11:41:46.199Z,15.57
2017-04-21T11:42:45.519Z,15.93
2017-04-21T11:43:44.430Z,16.02
2017-04-21T11:44:43.410Z,16.80
2017-04-21T11:45:42.447Z,16.82
2017-04-21T11:46:41.598Z,17.10
2017-04-21T11:47:40.707Z,16.38
2017-04-21T11:48:40.060Z,16.77
2017-04-21T11:49:39.219Z,18.47
2017-04-21T11:50:38.379Z,17.55
2017-04-21T11:51:38.100Z,16.30
2017-04-21T11:52:37.167Z,17.40
2017-04-21T11:53:36.182Z,19.70
2017-04-21T11:54:35.138Z,18.45
2017-04-21T11:55:34.811Z,17.50
2017-04-21T11:56:33.808Z,18.68
2017-04-21T11:57:33.316Z,19.48
2017-04-21T11:58:33.059Z,20.38
2017-04-21T11:59:32.107Z,19.23
2017-04-21T12:00:31.147Z,19.32
2017-04-21T12:01:30.123Z,19.10
2017-04-21T12:02:29.206Z,18.88
2017-04-21T12:03:28.200Z,20.73
2017-04-21T12:04:27.159Z,22.87
2017-04-21T12:05:26.256Z,20.77
2017-04-21T12:06:25.314Z,19.18
2017-04-21T12:07:24.370Z,20.33
2017-04-21T12:08:23.375Z,19.13
2017-04-21T12:09:22.338Z,21.50
2017-04-21T12:10:21.321Z,18.98
2017-04-21T12:11:20.566Z,19.00
2017-04-21T12:12:19.512Z,20.12
2017-04-21T12:13:18.483Z,22.28
2017-04-21T12:14:17.463Z,22.42
2017-04-21T12:15:16.436Z,25.35
2017-04-21T12:16:15.426Z,22.28
2017-04-21T12:17:14.375Z,22.73
2017-04-21T12:18:13.328Z,21.23
2017-04-21T12:19:12.268Z,20.90
2017-04-21T12:20:11.548Z,21.23
2017-04-21T12:21:11.219Z,19.67
2017-04-21T12:22:10.184Z,21.60
2017-04-21T12:23:09.137Z,20.75
2017-04-21T12:24:08.093Z,22.87
2017-04-21T12:25:07.867Z,18.93
2017-04-21T12:26:06.824Z,20.82
2017-04-21T12:27:05.953Z,19.83
2017-04-21T12:28:05.046Z,21.17
2017-04-21T12:29:04.837Z,21.05
2017-04-21T12:30:04.133Z,20.68
2017-04-21T12:31:03.910Z,19.47
2017-04-21T12:32:02.939Z,20.83
2017-04-21T12:33:01.952Z,20.58
2017-04-21T12:34:00.934Z,17.43
2017-04-21T12:34:59.925Z,19.65
2017-04-21T12:35:58.888Z,21.92
2017-04-21T12:36:57.901Z,20.05
2017-04-21T12:37:56.843Z,19.13
2017-04-21T12:38:55.791Z,18.95
2017-04-21T12:39:55.504Z,21.32
2017-04-21T12:40:54.493Z,21.70
2017-04-21T12:41:53.505Z,19.76
2017-04-21T12:42:52.608Z,17.23
2017-04-21T12:43:51.586Z,14.35